sensor_id;sensor_type;location;lat;lon;timestamp;P1;durP1;ratioP1;P2;durP2;ratioP2
71202;SDS011;58929;47.490;19.090;2023-02-27T00:00:04;6.57;;;4.78;;
71202;SDS011;58929;47.490;19.090;2023-02-27T00:02:40;8.25;;;5.32;;
71202;SDS011;58929;47.490;19.090;2023-02-27T00:05:08;10.52;;;5.78;;
71202;SDS011;58929;47.490;19.090;2023-02-27T00:07:36;7.70;;;4.63;;
71202;SDS011;58929;47.490;19.090;2023-02-27T00:10:09;7.75;;;5.30;;
71202;SDS011;58929;47.490;19.090;2023-02-27T00:12:37;8.38;;;5.10;;
71202;SDS011;58929;47.490;19.090;2023-02-27T00:15:06;7.28;;;5.55;;
71202;SDS011;58929;47.490;19.090;2023-02-27T00:17:34;8.70;;;4.95;;
71202;SDS011;58929;47.490;19.090;2023-02-27T00:20:03;9.98;;;5.40;;
71202;SDS011;58929;47.490;19.090;2023-02-27T00:22:32;7.88;;;5.43;;
71202;SDS011;58929;47.490;19.090;2023-02-27T00:25:00;7.63;;;5.05;;
71202;SDS011;58929;47.490;19.090;2023-02-27T00:27:32;8.77;;;4.90;;
71202;SDS011;58929;47.490;19.090;2023-02-27T00:30:00;7.68;;;4.93;;
71202;SDS011;58929;47.490;19.090;2023-02-27T00:32:29;8.82;;;5.57;;
71202;SDS011;58929;47.490;19.090;2023-02-27T00:34:57;7.75;;;5.00;;
71202;SDS011;58929;47.490;19.090;2023-02-27T00:37:25;8.75;;;5.00;;
71202;SDS011;58929;47.490;19.090;2023-02-27T00:39:53;9.57;;;5.65;;
71202;SDS011;58929;47.490;19.090;2023-02-27T00:42:21;8.02;;;5.15;;
71202;SDS011;58929;47.490;19.090;2023-02-27T00:44:53;7.47;;;4.95;;
71202;SDS011;58929;47.490;19.090;2023-02-27T00:47:21;8.52;;;5.43;;
71202;SDS011;58929;47.490;19.090;2023-02-27T00:49:49;9.82;;;5.22;;
71202;SDS011;58929;47.490;19.090;2023-02-27T00:52:17;9.18;;;5.80;;
71202;SDS011;58929;47.490;19.090;2023-02-27T00:54:45;11.52;;;6.10;;
71202;SDS011;58929;47.490;19.090;2023-02-27T00:57:13;10.05;;;6.15;;
71202;SDS011;58929;47.490;19.090;2023-02-27T00:59:41;9.65;;;5.05;;
71202;SDS011;58929;47.490;19.090;2023-02-27T01:02:13;10.43;;;5.32;;
71202;SDS011;58929;47.490;19.090;2023-02-27T01:04:41;10.55;;;6.63;;
71202;SDS011;58929;47.490;19.090;2023-02-27T01:07:09;9.15;;;5.05;;
71202;SDS011;58929;47.490;19.090;2023-02-27T01:09:37;9.55;;;5.82;;
71202;SDS011;58929;47.490;19.090;2023-02-27T01:12:06;9.07;;;5.70;;
71202;SDS011;58929;47.490;19.090;2023-02-27T01:14:34;8.75;;;5.00;;
71202;SDS011;58929;47.490;19.090;2023-02-27T01:17:02;10.27;;;5.43;;
71202;SDS011;58929;47.490;19.090;2023-02-27T01:19:31;9.43;;;5.78;;
71202;SDS011;58929;47.490;19.090;2023-02-27T01:21:59;8.95;;;4.97;;
71202;SDS011;58929;47.490;19.090;2023-02-27T01:24:28;7.78;;;5.07;;
71202;SDS011;58929;47.490;19.090;2023-02-27T01:26:56;7.45;;;4.57;;
71202;SDS011;58929;47.490;19.090;2023-02-27T01:29:24;7.15;;;4.93;;
71202;SDS011;58929;47.490;19.090;2023-02-27T01:31:52;8.70;;;5.60;;
71202;SDS011;58929;47.490;19.090;2023-02-27T01:34:21;12.15;;;4.75;;
71202;SDS011;58929;47.490;19.090;2023-02-27T01:36:50;10.50;;;4.90;;
71202;SDS011;58929;47.490;19.090;2023-02-27T01:39:18;11.85;;;5.78;;
71202;SDS011;58929;47.490;19.090;2023-02-27T01:41:46;8.73;;;4.90;;
71202;SDS011;58929;47.490;19.090;2023-02-27T01:44:15;10.10;;;5.78;;
71202;SDS011;58929;47.490;19.090;2023-02-27T01:46:43;8.05;;;5.72;;
71202;SDS011;58929;47.490;19.090;2023-02-27T01:49:11;8.35;;;5.50;;
71202;SDS011;58929;47.490;19.090;2023-02-27T01:51:44;8.95;;;4.93;;
71202;SDS011;58929;47.490;19.090;2023-02-27T01:54:15;6.63;;;4.60;;
71202;SDS011;58929;47.490;19.090;2023-02-27T01:56:44;7.50;;;4.72;;
71202;SDS011;58929;47.490;19.090;2023-02-27T01:59:12;9.65;;;5.30;;
71202;SDS011;58929;47.490;19.090;2023-02-27T02:01:41;8.23;;;4.57;;
71202;SDS011;58929;47.490;19.090;2023-02-27T02:04:11;8.07;;;5.47;;
71202;SDS011;58929;47.490;19.090;2023-02-27T02:06:45;6.28;;;4.25;;
71202;SDS011;58929;47.490;19.090;2023-02-27T02:09:16;9.45;;;5.45;;
71202;SDS011;58929;47.490;19.090;2023-02-27T02:11:45;9.15;;;4.80;;
71202;SDS011;58929;47.490;19.090;2023-02-27T02:14:16;8.93;;;5.05;;
71202;SDS011;58929;47.490;19.090;2023-02-27T02:17:03;7.90;;;4.90;;
71202;SDS011;58929;47.490;19.090;2023-02-27T02:19:39;7.45;;;5.38;;
71202;SDS011;58929;47.490;19.090;2023-02-27T02:22:25;7.68;;;5.03;;
71202;SDS011;58929;47.490;19.090;2023-02-27T02:25:14;8.05;;;4.60;;
71202;SDS011;58929;47.490;19.090;2023-02-27T02:27:52;7.57;;;5.23;;
71202;SDS011;58929;47.490;19.090;2023-02-27T02:30:35;7.93;;;4.40;;
71202;SDS011;58929;47.490;19.090;2023-02-27T02:38:54;9.05;;;4.78;;
71202;SDS011;58929;47.490;19.090;2023-02-27T02:41:28;6.05;;;4.25;;
71202;SDS011;58929;47.490;19.090;2023-02-27T02:44:01;8.38;;;5.07;;
71202;SDS011;58929;47.490;19.090;2023-02-27T02:46:34;7.88;;;5.30;;
71202;SDS011;58929;47.490;19.090;2023-02-27T02:49:04;8.63;;;5.32;;
71202;SDS011;58929;47.490;19.090;2023-02-27T02:51:36;7.60;;;4.53;;
71202;SDS011;58929;47.490;19.090;2023-02-27T02:54:09;6.32;;;4.63;;
71202;SDS011;58929;47.490;19.090;2023-02-27T02:56:40;8.00;;;4.45;;
71202;SDS011;58929;47.490;19.090;2023-02-27T02:59:11;6.53;;;3.90;;
71202;SDS011;58929;47.490;19.090;2023-02-27T03:01:41;6.45;;;4.43;;
71202;SDS011;58929;47.490;19.090;2023-02-27T03:04:11;9.27;;;4.10;;
71202;SDS011;58929;47.490;19.090;2023-02-27T03:06:44;12.55;;;4.50;;
71202;SDS011;58929;47.490;19.090;2023-02-27T03:09:17;5.30;;;3.92;;
71202;SDS011;58929;47.490;19.090;2023-02-27T03:11:46;8.20;;;4.35;;
71202;SDS011;58929;47.490;19.090;2023-02-27T03:14:15;8.88;;;4.40;;
71202;SDS011;58929;47.490;19.090;2023-02-27T03:16:45;7.20;;;4.53;;
71202;SDS011;58929;47.490;19.090;2023-02-27T03:19:15;8.10;;;4.90;;
71202;SDS011;58929;47.490;19.090;2023-02-27T03:21:47;9.00;;;5.13;;
71202;SDS011;58929;47.490;19.090;2023-02-27T03:24:19;6.55;;;4.68;;
71202;SDS011;58929;47.490;19.090;2023-02-27T03:26:49;7.05;;;4.25;;
71202;SDS011;58929;47.490;19.090;2023-02-27T03:29:19;9.25;;;5.03;;
71202;SDS011;58929;47.490;19.090;2023-02-27T03:31:50;7.65;;;4.80;;
71202;SDS011;58929;47.490;19.090;2023-02-27T03:34:20;6.68;;;4.07;;
71202;SDS011;58929;47.490;19.090;2023-02-27T03:36:51;7.32;;;4.50;;
71202;SDS011;58929;47.490;19.090;2023-02-27T03:39:26;6.60;;;4.25;;
71202;SDS011;58929;47.490;19.090;2023-02-27T03:41:57;7.10;;;4.00;;
71202;SDS011;58929;47.490;19.090;2023-02-27T03:44:59;6.63;;;4.07;;
71202;SDS011;58929;47.490;19.090;2023-02-27T03:47:29;6.78;;;4.28;;
71202;SDS011;58929;47.490;19.090;2023-02-27T03:49:58;9.48;;;4.45;;
71202;SDS011;58929;47.490;19.090;2023-02-27T03:52:27;8.82;;;4.22;;
71202;SDS011;58929;47.490;19.090;2023-02-27T03:54:58;6.45;;;4.10;;
71202;SDS011;58929;47.490;19.090;2023-02-27T03:57:29;7.40;;;3.97;;
71202;SDS011;58929;47.490;19.090;2023-02-27T03:59:57;7.28;;;4.38;;
71202;SDS011;58929;47.490;19.090;2023-02-27T04:02:25;9.52;;;4.80;;
71202;SDS011;58929;47.490;19.090;2023-02-27T04:04:55;6.70;;;4.07;;
71202;SDS011;58929;47.490;19.090;2023-02-27T04:07:43;6.13;;;3.92;;
71202;SDS011;58929;47.490;19.090;2023-02-27T04:10:23;9.30;;;4.93;;
71202;SDS011;58929;47.490;19.090;2023-02-27T04:13:03;10.23;;;4.18;;
71202;SDS011;58929;47.490;19.090;2023-02-27T04:15:39;7.18;;;3.65;;
71202;SDS011;58929;47.490;19.090;2023-02-27T04:18:15;7.38;;;4.28;;
71202;SDS011;58929;47.490;19.090;2023-02-27T04:20:44;6.88;;;3.97;;
71202;SDS011;58929;47.490;19.090;2023-02-27T04:23:16;7.45;;;3.60;;
71202;SDS011;58929;47.490;19.090;2023-02-27T04:26:00;9.00;;;4.55;;
71202;SDS011;58929;47.490;19.090;2023-02-27T04:28:34;8.68;;;4.45;;
71202;SDS011;58929;47.490;19.090;2023-02-27T04:31:06;6.85;;;3.90;;
71202;SDS011;58929;47.490;19.090;2023-02-27T04:33:42;7.72;;;3.97;;
71202;SDS011;58929;47.490;19.090;2023-02-27T04:36:12;7.68;;;3.70;;
71202;SDS011;58929;47.490;19.090;2023-02-27T04:38:44;6.75;;;4.10;;
71202;SDS011;58929;47.490;19.090;2023-02-27T04:41:17;6.35;;;3.55;;
71202;SDS011;58929;47.490;19.090;2023-02-27T04:43:46;6.25;;;3.60;;
71202;SDS011;58929;47.490;19.090;2023-02-27T04:46:15;9.13;;;3.75;;
71202;SDS011;58929;47.490;19.090;2023-02-27T04:48:48;8.02;;;3.65;;
71202;SDS011;58929;47.490;19.090;2023-02-27T04:51:20;6.00;;;3.72;;
71202;SDS011;58929;47.490;19.090;2023-02-27T04:53:51;5.35;;;3.17;;
71202;SDS011;58929;47.490;19.090;2023-02-27T04:56:23;6.43;;;3.70;;
71202;SDS011;58929;47.490;19.090;2023-02-27T04:58:53;8.68;;;4.68;;
71202;SDS011;58929;47.490;19.090;2023-02-27T05:01:23;9.02;;;3.83;;
71202;SDS011;58929;47.490;19.090;2023-02-27T05:03:52;10.13;;;3.92;;
71202;SDS011;58929;47.490;19.090;2023-02-27T05:06:23;8.23;;;3.78;;
71202;SDS011;58929;47.490;19.090;2023-02-27T05:08:55;8.00;;;3.85;;
71202;SDS011;58929;47.490;19.090;2023-02-27T05:11:25;6.70;;;3.70;;
71202;SDS011;58929;47.490;19.090;2023-02-27T05:13:56;5.32;;;3.50;;
71202;SDS011;58929;47.490;19.090;2023-02-27T05:16:26;12.20;;;3.92;;
71202;SDS011;58929;47.490;19.090;2023-02-27T05:18:58;8.23;;;4.35;;
71202;SDS011;58929;47.490;19.090;2023-02-27T05:21:28;11.45;;;4.45;;
71202;SDS011;58929;47.490;19.090;2023-02-27T05:24:01;8.20;;;4.75;;
71202;SDS011;58929;47.490;19.090;2023-02-27T05:26:37;7.72;;;4.10;;
71202;SDS011;58929;47.490;19.090;2023-02-27T05:29:08;9.82;;;4.57;;
71202;SDS011;58929;47.490;19.090;2023-02-27T05:31:40;8.85;;;3.63;;
71202;SDS011;58929;47.490;19.090;2023-02-27T05:34:11;5.35;;;3.03;;
71202;SDS011;58929;47.490;19.090;2023-02-27T05:36:42;7.13;;;3.92;;
71202;SDS011;58929;47.490;19.090;2023-02-27T05:39:12;8.05;;;4.18;;
71202;SDS011;58929;47.490;19.090;2023-02-27T05:41:43;5.18;;;3.72;;
71202;SDS011;58929;47.490;19.090;2023-02-27T05:44:14;12.38;;;6.57;;
71202;SDS011;58929;47.490;19.090;2023-02-27T05:46:43;8.07;;;3.97;;
71202;SDS011;58929;47.490;19.090;2023-02-27T05:49:13;11.52;;;4.60;;
71202;SDS011;58929;47.490;19.090;2023-02-27T05:51:44;12.15;;;4.30;;
71202;SDS011;58929;47.490;19.090;2023-02-27T05:54:14;8.05;;;4.18;;
71202;SDS011;58929;47.490;19.090;2023-02-27T05:56:47;12.98;;;5.70;;
71202;SDS011;58929;47.490;19.090;2023-02-27T05:59:16;9.30;;;4.07;;
71202;SDS011;58929;47.490;19.090;2023-02-27T06:01:47;7.82;;;4.03;;
71202;SDS011;58929;47.490;19.090;2023-02-27T06:04:15;7.35;;;3.83;;
71202;SDS011;58929;47.490;19.090;2023-02-27T06:06:43;8.35;;;4.22;;
71202;SDS011;58929;47.490;19.090;2023-02-27T06:09:13;8.93;;;4.18;;
71202;SDS011;58929;47.490;19.090;2023-02-27T06:11:42;12.13;;;4.97;;
71202;SDS011;58929;47.490;19.090;2023-02-27T06:14:11;9.38;;;3.75;;
71202;SDS011;58929;47.490;19.090;2023-02-27T06:16:42;10.07;;;4.47;;
71202;SDS011;58929;47.490;19.090;2023-02-27T06:19:10;7.72;;;3.58;;
71202;SDS011;58929;47.490;19.090;2023-02-27T06:21:38;6.43;;;3.95;;
71202;SDS011;58929;47.490;19.090;2023-02-27T06:24:06;7.55;;;4.10;;
71202;SDS011;58929;47.490;19.090;2023-02-27T06:26:34;7.70;;;4.53;;
71202;SDS011;58929;47.490;19.090;2023-02-27T06:29:02;8.60;;;4.65;;
71202;SDS011;58929;47.490;19.090;2023-02-27T06:31:32;9.63;;;4.50;;
71202;SDS011;58929;47.490;19.090;2023-02-27T06:34:00;14.73;;;3.83;;
71202;SDS011;58929;47.490;19.090;2023-02-27T06:36:28;8.85;;;4.10;;
71202;SDS011;58929;47.490;19.090;2023-02-27T06:38:56;7.68;;;4.32;;
71202;SDS011;58929;47.490;19.090;2023-02-27T06:41:24;8.93;;;4.30;;
71202;SDS011;58929;47.490;19.090;2023-02-27T06:43:52;8.00;;;4.60;;
71202;SDS011;58929;47.490;19.090;2023-02-27T06:46:21;8.07;;;4.28;;
71202;SDS011;58929;47.490;19.090;2023-02-27T06:48:50;7.90;;;4.40;;
71202;SDS011;58929;47.490;19.090;2023-02-27T06:51:18;9.75;;;3.22;;
71202;SDS011;58929;47.490;19.090;2023-02-27T06:53:46;8.45;;;3.97;;
71202;SDS011;58929;47.490;19.090;2023-02-27T06:56:14;10.35;;;3.65;;
71202;SDS011;58929;47.490;19.090;2023-02-27T06:58:42;12.90;;;4.30;;
71202;SDS011;58929;47.490;19.090;2023-02-27T07:01:10;12.77;;;4.80;;
71202;SDS011;58929;47.490;19.090;2023-02-27T07:03:40;15.18;;;4.10;;
71202;SDS011;58929;47.490;19.090;2023-02-27T07:06:09;14.10;;;4.88;;
71202;SDS011;58929;47.490;19.090;2023-02-27T07:08:37;10.30;;;4.25;;
71202;SDS011;58929;47.490;19.090;2023-02-27T07:11:25;8.80;;;3.60;;
71202;SDS011;58929;47.490;19.090;2023-02-27T07:13:53;7.18;;;3.58;;
71202;SDS011;58929;47.490;19.090;2023-02-27T07:16:21;8.77;;;4.10;;
71202;SDS011;58929;47.490;19.090;2023-02-27T07:18:49;5.97;;;3.42;;
71202;SDS011;58929;47.490;19.090;2023-02-27T07:21:18;6.45;;;3.70;;
71202;SDS011;58929;47.490;19.090;2023-02-27T07:23:46;9.20;;;4.43;;
71202;SDS011;58929;47.490;19.090;2023-02-27T07:26:14;8.13;;;4.13;;
71202;SDS011;58929;47.490;19.090;2023-02-27T07:28:42;12.00;;;5.82;;
71202;SDS011;58929;47.490;19.090;2023-02-27T07:31:10;9.40;;;3.53;;
71202;SDS011;58929;47.490;19.090;2023-02-27T07:33:38;10.65;;;3.28;;
71202;SDS011;58929;47.490;19.090;2023-02-27T07:36:07;9.43;;;3.50;;
71202;SDS011;58929;47.490;19.090;2023-02-27T07:38:37;11.70;;;3.75;;
71202;SDS011;58929;47.490;19.090;2023-02-27T07:41:05;7.10;;;3.35;;
71202;SDS011;58929;47.490;19.090;2023-02-27T07:43:34;6.25;;;3.20;;
71202;SDS011;58929;47.490;19.090;2023-02-27T07:46:02;8.68;;;3.83;;
71202;SDS011;58929;47.490;19.090;2023-02-27T07:48:30;10.93;;;3.65;;
71202;SDS011;58929;47.490;19.090;2023-02-27T07:50:58;7.88;;;4.03;;
71202;SDS011;58929;47.490;19.090;2023-02-27T07:53:26;10.02;;;3.65;;
71202;SDS011;58929;47.490;19.090;2023-02-27T07:55:56;11.57;;;3.70;;
71202;SDS011;58929;47.490;19.090;2023-02-27T07:58:24;10.27;;;3.85;;
71202;SDS011;58929;47.490;19.090;2023-02-27T08:00:52;7.53;;;3.50;;
71202;SDS011;58929;47.490;19.090;2023-02-27T08:03:20;5.07;;;3.38;;
71202;SDS011;58929;47.490;19.090;2023-02-27T08:05:48;10.98;;;4.28;;
71202;SDS011;58929;47.490;19.090;2023-02-27T08:08:16;8.70;;;4.07;;
71202;SDS011;58929;47.490;19.090;2023-02-27T08:10:44;9.85;;;4.53;;
71202;SDS011;58929;47.490;19.090;2023-02-27T08:13:13;13.23;;;5.57;;
71202;SDS011;58929;47.490;19.090;2023-02-27T08:15:46;12.70;;;5.03;;
71202;SDS011;58929;47.490;19.090;2023-02-27T08:18:14;6.65;;;3.70;;
71202;SDS011;58929;47.490;19.090;2023-02-27T08:20:41;8.73;;;4.70;;
71202;SDS011;58929;47.490;19.090;2023-02-27T08:23:10;10.75;;;4.20;;
71202;SDS011;58929;47.490;19.090;2023-02-27T08:25:38;8.38;;;4.57;;
71202;SDS011;58929;47.490;19.090;2023-02-27T08:28:06;10.27;;;3.63;;
71202;SDS011;58929;47.490;19.090;2023-02-27T08:30:36;11.82;;;4.25;;
71202;SDS011;58929;47.490;19.090;2023-02-27T08:33:04;10.00;;;4.95;;
71202;SDS011;58929;47.490;19.090;2023-02-27T08:35:33;8.20;;;4.20;;
71202;SDS011;58929;47.490;19.090;2023-02-27T08:38:08;9.23;;;4.05;;
71202;SDS011;58929;47.490;19.090;2023-02-27T08:40:36;6.88;;;3.85;;
71202;SDS011;58929;47.490;19.090;2023-02-27T08:43:04;10.20;;;4.32;;
71202;SDS011;58929;47.490;19.090;2023-02-27T08:45:32;7.35;;;3.90;;
71202;SDS011;58929;47.490;19.090;2023-02-27T08:48:02;9.40;;;4.03;;
71202;SDS011;58929;47.490;19.090;2023-02-27T08:50:30;15.02;;;4.50;;
71202;SDS011;58929;47.490;19.090;2023-02-27T08:52:58;12.45;;;4.30;;
71202;SDS011;58929;47.490;19.090;2023-02-27T08:55:26;7.97;;;3.90;;
71202;SDS011;58929;47.490;19.090;2023-02-27T08:57:54;6.15;;;4.05;;
71202;SDS011;58929;47.490;19.090;2023-02-27T09:00:22;8.23;;;4.30;;
71202;SDS011;58929;47.490;19.090;2023-02-27T09:02:51;13.50;;;4.68;;
71202;SDS011;58929;47.490;19.090;2023-02-27T09:05:23;23.83;;;13.30;;
71202;SDS011;58929;47.490;19.090;2023-02-27T09:07:51;24.50;;;11.73;;
71202;SDS011;58929;47.490;19.090;2023-02-27T09:10:19;16.88;;;6.78;;
71202;SDS011;58929;47.490;19.090;2023-02-27T09:12:47;6.50;;;4.13;;
71202;SDS011;58929;47.490;19.090;2023-02-27T09:15:15;10.52;;;4.28;;
71202;SDS011;58929;47.490;19.090;2023-02-27T09:17:43;9.15;;;3.70;;
71202;SDS011;58929;47.490;19.090;2023-02-27T09:20:12;7.50;;;4.18;;
71202;SDS011;58929;47.490;19.090;2023-02-27T09:22:42;11.90;;;4.47;;
71202;SDS011;58929;47.490;19.090;2023-02-27T09:25:10;9.50;;;4.32;;
71202;SDS011;58929;47.490;19.090;2023-02-27T09:27:40;12.45;;;6.68;;
71202;SDS011;58929;47.490;19.090;2023-02-27T09:30:09;11.07;;;4.20;;
71202;SDS011;58929;47.490;19.090;2023-02-27T09:32:37;10.45;;;4.30;;
71202;SDS011;58929;47.490;19.090;2023-02-27T09:35:07;7.82;;;4.20;;
71202;SDS011;58929;47.490;19.090;2023-02-27T09:37:36;9.43;;;4.18;;
71202;SDS011;58929;47.490;19.090;2023-02-27T09:40:05;7.85;;;3.95;;
71202;SDS011;58929;47.490;19.090;2023-02-27T09:42:35;7.30;;;4.13;;
71202;SDS011;58929;47.490;19.090;2023-02-27T09:45:08;8.90;;;3.83;;
71202;SDS011;58929;47.490;19.090;2023-02-27T09:47:41;9.43;;;4.25;;
71202;SDS011;58929;47.490;19.090;2023-02-27T09:50:17;8.80;;;4.57;;
71202;SDS011;58929;47.490;19.090;2023-02-27T09:52:49;6.68;;;3.80;;
71202;SDS011;58929;47.490;19.090;2023-02-27T09:55:25;14.38;;;4.53;;
71202;SDS011;58929;47.490;19.090;2023-02-27T09:57:57;11.23;;;4.28;;
71202;SDS011;58929;47.490;19.090;2023-02-27T10:00:30;8.27;;;3.85;;
71202;SDS011;58929;47.490;19.090;2023-02-27T10:03:05;5.60;;;3.72;;
71202;SDS011;58929;47.490;19.090;2023-02-27T10:05:37;6.78;;;3.90;;
71202;SDS011;58929;47.490;19.090;2023-02-27T10:08:09;11.07;;;4.13;;
71202;SDS011;58929;47.490;19.090;2023-02-27T10:10:42;10.15;;;3.83;;
71202;SDS011;58929;47.490;19.090;2023-02-27T10:13:22;5.78;;;3.40;;
71202;SDS011;58929;47.490;19.090;2023-02-27T10:15:53;10.80;;;4.25;;
71202;SDS011;58929;47.490;19.090;2023-02-27T10:18:22;16.48;;;4.47;;
71202;SDS011;58929;47.490;19.090;2023-02-27T10:20:56;8.85;;;4.28;;
71202;SDS011;58929;47.490;19.090;2023-02-27T10:23:29;13.25;;;6.32;;
71202;SDS011;58929;47.490;19.090;2023-02-27T10:26:00;8.98;;;4.72;;
71202;SDS011;58929;47.490;19.090;2023-02-27T10:28:28;7.28;;;4.32;;
71202;SDS011;58929;47.490;19.090;2023-02-27T10:30:56;7.35;;;4.55;;
71202;SDS011;58929;47.490;19.090;2023-02-27T10:33:26;15.15;;;9.02;;
71202;SDS011;58929;47.490;19.090;2023-02-27T10:35:56;9.10;;;4.78;;
71202;SDS011;58929;47.490;19.090;2023-02-27T10:38:30;9.40;;;4.35;;
71202;SDS011;58929;47.490;19.090;2023-02-27T10:41:01;8.30;;;4.03;;
71202;SDS011;58929;47.490;19.090;2023-02-27T10:43:29;9.65;;;4.20;;
71202;SDS011;58929;47.490;19.090;2023-02-27T10:45:59;9.35;;;3.88;;
71202;SDS011;58929;47.490;19.090;2023-02-27T10:48:28;8.50;;;4.13;;
71202;SDS011;58929;47.490;19.090;2023-02-27T10:53:41;7.75;;;4.68;;
71202;SDS011;58929;47.490;19.090;2023-02-27T10:56:12;11.45;;;4.55;;
71202;SDS011;58929;47.490;19.090;2023-02-27T10:58:42;7.65;;;4.35;;
71202;SDS011;58929;47.490;19.090;2023-02-27T11:01:10;9.57;;;4.47;;
71202;SDS011;58929;47.490;19.090;2023-02-27T11:03:38;8.88;;;4.55;;
71202;SDS011;58929;47.490;19.090;2023-02-27T11:06:08;9.60;;;5.00;;
71202;SDS011;58929;47.490;19.090;2023-02-27T11:08:36;7.75;;;4.60;;
71202;SDS011;58929;47.490;19.090;2023-02-27T11:11:05;9.40;;;5.90;;
71202;SDS011;58929;47.490;19.090;2023-02-27T11:13:36;13.13;;;4.80;;
71202;SDS011;58929;47.490;19.090;2023-02-27T11:16:10;8.75;;;4.60;;
71202;SDS011;58929;47.490;19.090;2023-02-27T11:18:41;11.98;;;5.30;;
71202;SDS011;58929;47.490;19.090;2023-02-27T11:21:11;7.68;;;4.63;;
71202;SDS011;58929;47.490;19.090;2023-02-27T11:23:48;10.32;;;4.10;;
71202;SDS011;58929;47.490;19.090;2023-02-27T11:26:16;6.80;;;4.20;;
71202;SDS011;58929;47.490;19.090;2023-02-27T11:28:47;8.95;;;4.05;;
71202;SDS011;58929;47.490;19.090;2023-02-27T11:31:29;9.27;;;4.85;;
71202;SDS011;58929;47.490;19.090;2023-02-27T11:33:58;11.00;;;5.72;;
71202;SDS011;58929;47.490;19.090;2023-02-27T11:36:37;10.32;;;4.90;;
71202;SDS011;58929;47.490;19.090;2023-02-27T11:39:05;10.45;;;5.50;;
71202;SDS011;58929;47.490;19.090;2023-02-27T11:41:33;11.13;;;5.05;;
71202;SDS011;58929;47.490;19.090;2023-02-27T11:44:03;12.63;;;5.57;;
71202;SDS011;58929;47.490;19.090;2023-02-27T11:46:31;8.93;;;4.70;;
71202;SDS011;58929;47.490;19.090;2023-02-27T11:49:19;9.57;;;5.32;;
71202;SDS011;58929;47.490;19.090;2023-02-27T11:51:52;8.43;;;4.93;;
71202;SDS011;58929;47.490;19.090;2023-02-27T11:54:29;7.80;;;4.80;;
71202;SDS011;58929;47.490;19.090;2023-02-27T11:57:00;7.57;;;4.72;;
71202;SDS011;58929;47.490;19.090;2023-02-27T11:59:39;8.45;;;5.32;;
71202;SDS011;58929;47.490;19.090;2023-02-27T12:02:11;12.18;;;5.53;;
71202;SDS011;58929;47.490;19.090;2023-02-27T12:04:43;8.25;;;5.22;;
71202;SDS011;58929;47.490;19.090;2023-02-27T12:07:14;12.30;;;6.55;;
71202;SDS011;58929;47.490;19.090;2023-02-27T12:09:45;9.70;;;5.78;;
71202;SDS011;58929;47.490;19.090;2023-02-27T12:12:17;10.85;;;5.25;;
71202;SDS011;58929;47.490;19.090;2023-02-27T12:14:49;10.50;;;5.15;;
71202;SDS011;58929;47.490;19.090;2023-02-27T12:17:20;9.90;;;5.72;;
71202;SDS011;58929;47.490;19.090;2023-02-27T12:19:54;8.35;;;4.82;;
71202;SDS011;58929;47.490;19.090;2023-02-27T12:22:24;9.75;;;5.85;;
71202;SDS011;58929;47.490;19.090;2023-02-27T12:24:53;11.90;;;5.57;;
71202;SDS011;58929;47.490;19.090;2023-02-27T12:27:25;12.77;;;6.85;;
71202;SDS011;58929;47.490;19.090;2023-02-27T12:29:59;13.02;;;5.53;;
71202;SDS011;58929;47.490;19.090;2023-02-27T12:32:30;10.35;;;5.57;;
71202;SDS011;58929;47.490;19.090;2023-02-27T12:34:59;9.40;;;5.35;;
71202;SDS011;58929;47.490;19.090;2023-02-27T12:37:28;12.48;;;5.40;;
71202;SDS011;58929;47.490;19.090;2023-02-27T12:39:59;10.15;;;4.80;;
71202;SDS011;58929;47.490;19.090;2023-02-27T12:42:31;9.82;;;5.88;;
71202;SDS011;58929;47.490;19.090;2023-02-27T12:45:09;9.70;;;5.53;;
71202;SDS011;58929;47.490;19.090;2023-02-27T12:47:42;10.95;;;5.47;;
71202;SDS011;58929;47.490;19.090;2023-02-27T12:50:14;11.63;;;5.60;;
71202;SDS011;58929;47.490;19.090;2023-02-27T12:52:45;8.50;;;5.07;;
71202;SDS011;58929;47.490;19.090;2023-02-27T12:55:19;8.45;;;5.55;;
71202;SDS011;58929;47.490;19.090;2023-02-27T13:00:44;9.52;;;5.35;;
71202;SDS011;58929;47.490;19.090;2023-02-27T13:03:14;9.43;;;5.28;;
71202;SDS011;58929;47.490;19.090;2023-02-27T13:05:45;9.05;;;5.00;;
71202;SDS011;58929;47.490;19.090;2023-02-27T13:11:05;9.15;;;5.80;;
71202;SDS011;58929;47.490;19.090;2023-02-27T13:13:37;11.95;;;5.53;;
71202;SDS011;58929;47.490;19.090;2023-02-27T13:16:09;11.73;;;6.22;;
71202;SDS011;58929;47.490;19.090;2023-02-27T13:18:41;8.82;;;5.90;;
71202;SDS011;58929;47.490;19.090;2023-02-27T13:21:11;12.80;;;5.85;;
71202;SDS011;58929;47.490;19.090;2023-02-27T13:23:42;9.85;;;5.72;;
71202;SDS011;58929;47.490;19.090;2023-02-27T13:26:15;10.40;;;5.30;;
71202;SDS011;58929;47.490;19.090;2023-02-27T13:28:45;13.60;;;7.78;;
71202;SDS011;58929;47.490;19.090;2023-02-27T13:31:17;13.23;;;6.32;;
71202;SDS011;58929;47.490;19.090;2023-02-27T13:33:50;8.23;;;5.68;;
71202;SDS011;58929;47.490;19.090;2023-02-27T13:36:20;10.15;;;5.70;;
71202;SDS011;58929;47.490;19.090;2023-02-27T13:38:50;8.40;;;5.82;;
71202;SDS011;58929;47.490;19.090;2023-02-27T13:41:37;9.20;;;5.28;;
71202;SDS011;58929;47.490;19.090;2023-02-27T13:46:55;8.48;;;5.90;;
71202;SDS011;58929;47.490;19.090;2023-02-27T13:49:43;12.02;;;6.63;;
71202;SDS011;58929;47.490;19.090;2023-02-27T13:52:11;12.63;;;6.65;;
71202;SDS011;58929;47.490;19.090;2023-02-27T13:54:39;12.38;;;5.55;;
71202;SDS011;58929;47.490;19.090;2023-02-27T13:59:58;9.30;;;5.60;;
71202;SDS011;58929;47.490;19.090;2023-02-27T14:05:29;14.38;;;7.45;;
71202;SDS011;58929;47.490;19.090;2023-02-27T14:07:59;9.90;;;6.30;;
71202;SDS011;58929;47.490;19.090;2023-02-27T14:10:28;11.55;;;5.50;;
71202;SDS011;58929;47.490;19.090;2023-02-27T14:12:56;8.52;;;5.72;;
71202;SDS011;58929;47.490;19.090;2023-02-27T14:21:01;7.68;;;5.47;;
71202;SDS011;58929;47.490;19.090;2023-02-27T14:23:29;11.75;;;6.57;;
71202;SDS011;58929;47.490;19.090;2023-02-27T14:25:58;22.08;;;12.45;;
71202;SDS011;58929;47.490;19.090;2023-02-27T14:28:29;16.00;;;9.70;;
71202;SDS011;58929;47.490;19.090;2023-02-27T14:30:59;9.15;;;6.40;;
71202;SDS011;58929;47.490;19.090;2023-02-27T14:33:29;11.18;;;6.53;;
71202;SDS011;58929;47.490;19.090;2023-02-27T14:36:08;9.18;;;6.53;;
71202;SDS011;58929;47.490;19.090;2023-02-27T14:38:40;10.20;;;6.13;;
71202;SDS011;58929;47.490;19.090;2023-02-27T14:41:14;10.60;;;6.60;;
71202;SDS011;58929;47.490;19.090;2023-02-27T14:43:44;10.02;;;5.75;;
71202;SDS011;58929;47.490;19.090;2023-02-27T14:46:22;8.80;;;5.90;;
71202;SDS011;58929;47.490;19.090;2023-02-27T14:48:54;8.27;;;5.78;;
71202;SDS011;58929;47.490;19.090;2023-02-27T14:51:26;10.73;;;5.97;;
71202;SDS011;58929;47.490;19.090;2023-02-27T14:53:58;9.43;;;6.32;;
71202;SDS011;58929;47.490;19.090;2023-02-27T14:56:26;14.50;;;6.60;;
71202;SDS011;58929;47.490;19.090;2023-02-27T14:58:54;9.90;;;6.00;;
71202;SDS011;58929;47.490;19.090;2023-02-27T15:01:32;12.50;;;6.72;;
71202;SDS011;58929;47.490;19.090;2023-02-27T15:04:02;8.00;;;5.47;;
71202;SDS011;58929;47.490;19.090;2023-02-27T15:06:34;16.98;;;8.57;;
71202;SDS011;58929;47.490;19.090;2023-02-27T15:09:02;13.80;;;7.25;;
71202;SDS011;58929;47.490;19.090;2023-02-27T15:11:30;15.90;;;9.75;;
71202;SDS011;58929;47.490;19.090;2023-02-27T15:13:59;11.20;;;6.38;;
71202;SDS011;58929;47.490;19.090;2023-02-27T15:16:29;10.02;;;5.93;;
71202;SDS011;58929;47.490;19.090;2023-02-27T15:19:01;11.15;;;6.28;;